createdAt,value
2023-02-18T00:02:32.912Z,100782.25
2023-02-18T00:07:33.262Z,100786.03
2023-02-18T00:12:31.250Z,100792.72
2023-02-18T00:17:29.226Z,100795.41
2023-02-18T00:22:25.557Z,100792.19
2023-02-18T00:27:21.860Z,100797.16
2023-02-18T00:32:18.443Z,100782.16
2023-02-18T00:37:14.757Z,100780.44
2023-02-18T00:42:11.226Z,100779.50
2023-02-18T00:47:07.668Z,100793.22
2023-02-18T00:52:04.384Z,100814.13
2023-02-18T00:57:00.750Z,100810.97
2023-02-18T01:01:57.098Z,100829.47
2023-02-18T01:06:53.439Z,100830.91
2023-02-18T01:11:49.894Z,100832.50
2023-02-18T01:16:46.302Z,100834.97
2023-02-18T01:21:42.655Z,100841.41
2023-02-18T01:26:38.927Z,100842.59
2023-02-18T01:31:35.456Z,100841.03
2023-02-18T01:36:31.926Z,100824.69
2023-02-18T01:41:28.419Z,100819.94
2023-02-18T01:46:25.742Z,100809.19
2023-02-18T01:51:43.906Z,100804.63
2023-02-18T01:56:53.214Z,100806.72
2023-02-18T02:01:49.811Z,100799.91
2023-02-18T02:06:46.148Z,100788.06
2023-02-18T02:12:07.019Z,100794.03
2023-02-18T02:17:17.713Z,100781.75
2023-02-18T02:22:34.898Z,100779.06
2023-02-18T02:28:08.779Z,100760.53
2023-02-18T02:33:25.404Z,100752.28
2023-02-18T02:38:44.279Z,100739.97
2023-02-18T02:43:43.470Z,100731.72
2023-02-18T02:49:08.415Z,100719.22
2023-02-18T02:54:22.150Z,100722.03
2023-02-18T02:59:22.561Z,100722.09
2023-02-18T03:04:21.931Z,100715.34
2023-02-18T03:09:46.140Z,100712.66
2023-02-18T03:15:17.961Z,100708.63
2023-02-18T03:20:25.572Z,100701.22
2023-02-18T03:25:23.580Z,100693.81
2023-02-18T03:30:22.895Z,100685.72
2023-02-18T03:35:20.161Z,100684.06
2023-02-18T03:40:17.653Z,100680.44
2023-02-18T03:45:14.031Z,100688.50
2023-02-18T03:50:10.445Z,100694.69
2023-02-18T03:55:07.242Z,100699.13
2023-02-18T04:00:06.224Z,100696.06
2023-02-18T04:05:03.113Z,100710.19
2023-02-18T04:09:59.468Z,100709.09
2023-02-18T04:14:55.776Z,100724.72
2023-02-18T04:19:52.200Z,100730.69
2023-02-18T04:24:48.501Z,100729.81
2023-02-18T04:29:44.916Z,100736.53
2023-02-18T04:34:41.321Z,100735.47
2023-02-18T04:39:37.652Z,100736.13
2023-02-18T04:44:34.599Z,100741.44
2023-02-18T04:49:30.913Z,100745.56
2023-02-18T04:54:27.345Z,100742.09
2023-02-18T04:59:23.745Z,100742.81
2023-02-18T05:04:20.219Z,100742.63
2023-02-18T05:09:16.711Z,100747.84
2023-02-18T05:14:13.658Z,100742.31
2023-02-18T05:19:14.536Z,100738.78
2023-02-18T05:24:10.837Z,100734.34
2023-02-18T05:29:07.269Z,100731.47
2023-02-18T05:34:03.966Z,100714.38
2023-02-18T05:39:00.714Z,100697.69
2023-02-18T05:44:15.884Z,100695.13
2023-02-18T05:49:12.839Z,100679.84
2023-02-18T05:54:09.176Z,100669.13
2023-02-18T05:59:05.630Z,100647.09
2023-02-18T06:04:01.921Z,100643.41
2023-02-18T06:08:58.346Z,100634.59
2023-02-18T06:13:54.687Z,100634.69
2023-02-18T06:18:51.021Z,100618.75
2023-02-18T06:23:47.485Z,100609.28
2023-02-18T06:28:43.796Z,100628.88
2023-02-18T06:33:40.670Z,100619.19
2023-02-18T06:38:40.164Z,100629.06
2023-02-18T06:43:36.532Z,100640.53
2023-02-18T06:48:33.230Z,100630.03
2023-02-18T06:53:29.650Z,100633.53
2023-02-18T06:58:26.080Z,100637.03
2023-02-18T07:03:22.433Z,100641.38
2023-02-18T07:08:18.896Z,100637.03
2023-02-18T07:13:15.421Z,100635.22
2023-02-18T07:18:12.087Z,100634.38
2023-02-18T07:23:08.383Z,100637.03
2023-02-18T07:28:04.908Z,100639.81
2023-02-18T07:33:03.848Z,100634.38
2023-02-18T07:38:00.310Z,100632.25
2023-02-18T07:42:56.631Z,100625.22
2023-02-18T07:47:52.954Z,100611.84
2023-02-18T07:52:49.246Z,100623.09
2023-02-18T07:57:57.452Z,100603.78
2023-02-18T08:02:53.796Z,100603.78
2023-02-18T08:07:50.109Z,100593.16
2023-02-18T08:12:46.439Z,100607.41
2023-02-18T08:17:42.758Z,100597.72
2023-02-18T08:22:39.054Z,100598.47
2023-02-18T08:27:35.422Z,100592.00
2023-02-18T08:32:31.772Z,100585.69
2023-02-18T08:37:28.077Z,100569.56
2023-02-18T08:42:24.435Z,100553.19
2023-02-18T08:48:18.202Z,100534.47
2023-02-18T08:52:37.167Z,100519.16
2023-02-18T08:57:33.592Z,100508.53
2023-02-18T09:02:30.206Z,100466.22
2023-02-18T09:07:26.501Z,100468.41
2023-02-18T09:12:22.830Z,100466.69
2023-02-18T09:17:19.101Z,100455.84
2023-02-18T09:22:15.562Z,100441.69
2023-02-18T09:27:12.059Z,100432.91
2023-02-18T09:32:09.096Z,100418.88
2023-02-18T09:37:05.580Z,100426.31
2023-02-18T09:42:10.712Z,100399.03
2023-02-18T09:47:18.051Z,100414.03
2023-02-18T09:52:20.343Z,100410.47
2023-02-18T09:57:39.242Z,100404.97
2023-02-18T10:02:37.256Z,100405.44
2023-02-18T10:07:36.665Z,100413.59
2023-02-18T10:12:35.053Z,100419.75
2023-02-18T10:17:32.640Z,100399.59
2023-02-18T10:22:30.018Z,100406.31
2023-02-18T10:27:30.007Z,100406.41
2023-02-18T10:32:36.538Z,100404.84
2023-02-18T10:37:54.748Z,100415.16
2023-02-18T10:43:03.182Z,100413.78
2023-02-18T10:48:28.282Z,100412.91
2023-02-18T10:53:37.561Z,100390.22
2023-02-18T10:58:36.682Z,100393.84
2023-02-18T11:03:43.526Z,100408.28
2023-02-18T11:08:44.090Z,100387.06
2023-02-18T11:13:41.245Z,100396.59
2023-02-18T11:18:46.414Z,100397.84
2023-02-18T11:23:48.700Z,100383.66
2023-02-18T11:28:48.696Z,100401.88
2023-02-18T11:33:50.412Z,100405.94
2023-02-18T11:38:53.883Z,100411.97
2023-02-18T11:43:52.980Z,100414.13
2023-02-18T11:48:50.509Z,100423.97
2023-02-18T11:54:06.119Z,100419.63
2023-02-18T11:59:04.132Z,100436.28
2023-02-18T12:04:06.271Z,100437.97
2023-02-18T12:09:28.589Z,100448.59
2023-02-18T12:14:25.386Z,100433.72
2023-02-18T12:19:46.148Z,100446.88
2023-02-18T12:24:57.413Z,100451.47
2023-02-18T12:30:10.796Z,100462.16
2023-02-18T12:35:47.548Z,100463.88
2023-02-18T12:41:07.694Z,100480.81
2023-02-18T12:46:31.838Z,100493.06
2023-02-18T12:51:50.154Z,100492.69
2023-02-18T12:57:01.435Z,100494.41
2023-02-18T13:02:24.874Z,100482.09
2023-02-18T13:07:36.552Z,100477.47
2023-02-18T13:12:45.874Z,100490.38
2023-02-18T13:17:44.038Z,100488.69
2023-02-18T13:22:40.555Z,100495.69
2023-02-18T13:27:47.829Z,100488.47
2023-02-18T13:33:02.621Z,100496.34
2023-02-18T13:38:27.020Z,100496.97
2023-02-18T13:43:32.842Z,100484.25
2023-02-18T13:48:29.537Z,100480.88
2023-02-18T13:53:29.253Z,100481.28
2023-02-18T13:58:34.882Z,100480.09
2023-02-18T14:03:50.834Z,100464.19
2023-02-18T14:08:47.832Z,100450.59
2023-02-18T14:13:49.436Z,100453.66
2023-02-18T14:18:45.766Z,100457.50
2023-02-18T14:23:45.052Z,100457.16
2023-02-18T14:28:49.127Z,100448.66
2023-02-18T14:34:04.072Z,100460.66
2023-02-18T14:39:28.400Z,100455.97
2023-02-18T14:44:42.794Z,100452.13
2023-02-18T14:49:53.022Z,100449.34
2023-02-18T14:54:49.677Z,100445.50
2023-02-18T14:59:47.639Z,100440.00
2023-02-18T15:04:45.935Z,100446.03
2023-02-18T15:09:53.032Z,100437.13
2023-02-18T15:14:52.241Z,100437.84
2023-02-18T15:19:54.302Z,100440.16
2023-02-18T15:24:54.743Z,100434.53
2023-02-18T15:29:53.364Z,100428.97
2023-02-18T15:34:56.234Z,100415.59
2023-02-18T15:39:52.628Z,100412.09
2023-02-18T15:44:52.099Z,100423.47
2023-02-18T15:49:54.554Z,100424.44
2023-02-18T15:54:51.294Z,100414.75
2023-02-18T15:59:55.614Z,100417.41
2023-02-18T16:05:00.299Z,100410.91
2023-02-18T16:10:16.002Z,100402.94
2023-02-18T16:15:23.176Z,100404.88
2023-02-18T16:20:38.487Z,100405.06
2023-02-18T16:25:50.252Z,100422.47
2023-02-18T16:30:46.684Z,100412.47
2023-02-18T16:35:50.096Z,100412.63
2023-02-18T16:40:47.541Z,100411.53
2023-02-18T16:45:49.606Z,100418.66
2023-02-18T16:50:47.148Z,100408.25
2023-02-18T16:55:43.445Z,100422.06
2023-02-18T17:00:39.834Z,100413.31
2023-02-18T17:05:39.318Z,100418.88
2023-02-18T17:10:35.830Z,100425.28
2023-02-18T17:15:35.384Z,100435.03
2023-02-18T17:20:33.141Z,100428.03
2023-02-18T17:25:34.152Z,100443.72
2023-02-18T17:30:32.105Z,100441.06
2023-02-18T17:35:28.441Z,100445.22
2023-02-18T17:40:27.865Z,100453.31
2023-02-18T17:45:29.169Z,100450.84
2023-02-18T17:50:26.391Z,100468.19
2023-02-18T17:55:28.075Z,100462.50
2023-02-18T18:00:33.688Z,100485.66
2023-02-18T18:05:39.718Z,100481.22
2023-02-18T18:10:39.597Z,100479.53
2023-02-18T18:15:40.999Z,100469.31
2023-02-18T18:20:38.093Z,100477.81
2023-02-18T18:25:39.943Z,100468.22
2023-02-18T18:30:42.623Z,100467.50
2023-02-18T18:35:39.053Z,100477.84
2023-02-18T18:40:36.122Z,100484.78
2023-02-18T18:45:39.666Z,100478.94
2023-02-18T18:50:39.181Z,100487.84
2023-02-18T18:55:38.341Z,100503.78
2023-02-18T19:00:40.843Z,100489.53
2023-02-18T19:05:40.289Z,100498.47
2023-02-18T19:10:42.932Z,100504.00
2023-02-18T19:15:40.043Z,100501.34
2023-02-18T19:20:36.490Z,100506.97
2023-02-18T19:25:33.053Z,100509.94
2023-02-18T19:30:34.132Z,100519.91
2023-02-18T19:35:31.599Z,100523.53
2023-02-18T19:40:30.262Z,100528.81
2023-02-18T19:45:26.693Z,100532.47
2023-02-18T19:50:25.287Z,100534.47
2023-02-18T19:55:22.013Z,100538.06
2023-02-18T20:00:20.692Z,100544.13
2023-02-18T20:05:17.880Z,100541.59
2023-02-18T20:10:17.509Z,100529.03
2023-02-18T20:15:14.139Z,100519.91
2023-02-18T20:20:10.682Z,100490.41
2023-02-18T20:25:07.425Z,100499.72
2023-02-18T20:30:06.064Z,100487.81
2023-02-18T20:35:03.951Z,100466.28
2023-02-18T20:40:00.228Z,100458.13
2023-02-18T20:44:56.593Z,100455.81
2023-02-18T20:49:53.006Z,100470.13
2023-02-18T20:54:49.373Z,100461.66
2023-02-18T20:59:45.766Z,100471.53
2023-02-18T21:04:42.927Z,100478.84
2023-02-18T21:09:39.335Z,100486.72
2023-02-18T21:14:35.906Z,100495.63
2023-02-18T21:19:32.265Z,100500.06
2023-02-18T21:24:29.048Z,100508.03
2023-02-18T21:29:25.748Z,100515.16
2023-02-18T21:34:22.829Z,100516.22
2023-02-18T21:39:19.447Z,100503.81
2023-02-18T21:44:15.781Z,100502.09
2023-02-18T21:49:12.465Z,100505.69
2023-02-18T21:54:08.968Z,100512.72
2023-02-18T21:59:05.241Z,100507.41
2023-02-18T22:04:01.542Z,100508.34
2023-02-18T22:09:00.620Z,100512.72
2023-02-18T22:13:57.736Z,100514.50
2023-02-18T22:18:57.646Z,100507.59
2023-02-18T22:23:53.947Z,100507.59
2023-02-18T22:28:52.204Z,100494.50
2023-02-18T22:33:51.440Z,100510.44
2023-02-18T22:38:48.568Z,100493.78
2023-02-18T22:43:44.948Z,100483.41
2023-02-18T22:48:41.633Z,100485.06
2023-02-18T22:53:39.136Z,100472.78
2023-02-18T22:58:36.524Z,100467.66
2023-02-18T23:03:33.361Z,100453.69
2023-02-18T23:08:30.842Z,100457.28
2023-02-18T23:13:27.138Z,100455.78
2023-02-18T23:18:23.636Z,100445.81
2023-02-18T23:23:19.914Z,100418.75
2023-02-18T23:28:16.207Z,100427.06
2023-02-18T23:33:12.494Z,100434.25
2023-02-18T23:38:09.086Z,100437.53
2023-02-18T23:43:05.410Z,100432.56
2023-02-18T23:48:01.793Z,100427.88
2023-02-18T23:52:58.122Z,100412.19
2023-02-18T23:57:54.433Z,100421.31
